Magra, California
Current Conditions -  °F | °C
As of 7:40 PM on Friday 19 Dec 2014 (Local Time) from KGOO Reporting Station
Overcast Overcast  
Wind Chill:   Ceiling: 300
Heat Index:   Visibility: 1.7mi
Dew Point:   Wind: 6mph
Humidity: 100%   Direction: 150°SSE
Pressure: 30.14"   Gusts: NA
Location:  39.1673°N, 120.867°W
Report Text: KGOO 200340Z AUTO 15005KT 1 3/4SM OVC003 06/06 A3014 RMK AO1
Loading
Personal Weather Stations






























Interactive Weather Map New forecast layout! Learn more

10-Day Weather Forecast

Advertisements
Track Severe Weather on mobile